createdAt,value
2019-02-25T00:03:36.284Z,2.5
2019-02-25T00:18:53.197Z,2.4
2019-02-25T00:34:04.501Z,2
2019-02-25T00:49:15.875Z,1.9
2019-02-25T01:04:26.971Z,1.9
2019-02-25T01:19:38.122Z,2
2019-02-25T01:34:49.292Z,1.9
2019-02-25T01:50:00.491Z,1.6
2019-02-25T02:05:11.555Z,1.6
2019-02-25T02:20:20.673Z,1.5
2019-02-25T02:35:33.654Z,1.6
2019-02-25T02:50:44.792Z,1.5
2019-02-25T03:05:55.779Z,1.5
2019-02-25T03:21:00.295Z,1.5
2019-02-25T03:36:17.903Z,1.5
2019-02-25T03:51:28.922Z,1.5
2019-02-25T04:06:40.004Z,1.4
2019-02-25T04:21:50.929Z,1.2
2019-02-25T04:37:01.894Z,1.2
2019-02-25T04:52:12.801Z,1.3
2019-02-25T05:07:23.843Z,1.4
2019-02-25T05:22:34.950Z,1.2
2019-02-25T05:37:44.248Z,1.3
2019-02-25T05:52:56.892Z,1.3
2019-02-25T06:08:07.917Z,1.5
2019-02-25T06:23:19.685Z,1.4
2019-02-25T06:38:23.498Z,1.5
2019-02-25T06:53:41.053Z,1.9
2019-02-25T07:08:55.365Z,2.2
2019-02-25T07:24:03.856Z,2.8
2019-02-25T07:39:10.767Z,3
2019-02-25T07:54:27.055Z,3.4
2019-02-25T08:09:38.907Z,3.8
2019-02-25T08:24:50.902Z,4.3
2019-02-25T08:40:00.778Z,4.9
2019-02-25T08:55:15.525Z,5.5
2019-02-25T09:10:28.207Z,6.2
2019-02-25T09:25:41.050Z,6.9
2019-02-25T09:40:48.259Z,7.7
2019-02-25T09:56:07.796Z,8.7
2019-02-25T10:11:21.711Z,10.1
2019-02-25T10:26:36.336Z,10.7
2019-02-25T10:41:51.508Z,11.3
2019-02-25T10:57:06.435Z,11.8
2019-02-25T11:12:23.253Z,12.4
2019-02-25T11:27:39.876Z,13
2019-02-25T11:42:54.470Z,13.7
2019-02-25T11:57:59.412Z,14.4
2019-02-25T12:13:28.106Z,14.6
2019-02-25T12:28:45.200Z,15.1
2019-02-25T12:44:02.680Z,15.6
2019-02-25T12:59:20.391Z,15.9
2019-02-25T13:14:26.043Z,16.1
2019-02-25T13:29:55.570Z,16.2
2019-02-25T13:45:13.449Z,16.1
2019-02-25T14:00:31.326Z,15.9
2019-02-25T14:15:49.059Z,15.9
2019-02-25T14:30:53.624Z,15.7
2019-02-25T14:46:24.894Z,15.5
2019-02-25T15:01:40.791Z,15.3
2019-02-25T15:16:57.702Z,15.1
2019-02-25T15:32:14.590Z,14.7
2019-02-25T15:47:19.202Z,14.4
2019-02-25T16:02:48.204Z,13.9
2019-02-25T16:18:05.856Z,13.4
2019-02-25T16:33:21.630Z,12.9
2019-02-25T16:48:37.010Z,12.5
2019-02-25T17:03:41.484Z,12.1
2019-02-25T17:19:06.964Z,11.6
2019-02-25T17:34:21.517Z,11.2
2019-02-25T17:49:36.534Z,10.7
2019-02-25T18:04:50.986Z,10.3
2019-02-25T18:19:58.410Z,10.4
2019-02-25T18:35:20.260Z,10.1
2019-02-25T18:50:32.879Z,9.7
2019-02-25T19:05:46.785Z,9.5
2019-02-25T19:21:02.001Z,9.4
2019-02-25T19:36:14.236Z,9.3
2019-02-25T19:51:29.764Z,9.2
2019-02-25T20:06:44.388Z,9.2
2019-02-25T20:21:56.830Z,8.9
2019-02-25T20:37:03.842Z,8.6
2019-02-25T20:52:23.045Z,8.4
2019-02-25T21:07:38.067Z,8
2019-02-25T21:22:50.612Z,7.8
2019-02-25T21:38:02.999Z,7.6
2019-02-25T21:53:16.018Z,7.5
2019-02-25T22:08:31.348Z,7.3
2019-02-25T22:23:42.377Z,7.2
2019-02-25T22:38:57.117Z,7
2019-02-25T22:54:10.179Z,6.7
2019-02-25T23:09:23.026Z,6.6
2019-02-25T23:24:35.088Z,6.4
2019-02-25T23:39:46.861Z,6.1
2019-02-25T23:54:59.396Z,5.9
